Airport ICAO


20:14 UTC

24°C


An affordable passengers' Moving Map for your aircraft. Made for the iPad and the iPhone
More information here

EGSS Stansted


London UNITED KINGDOM   VFR


METAR EGSS 161950Z AUTO 26005KT 9999 NCD 24/11 Q1012 0h24min

TAF EGSS 161656Z 1618/1724 27007KT 9999 FEW045 3h18min





NOTAMS

OPEN